Time;durP1;ratioP1;P1;durP2;ratioP2;P2;SDS_P1;SDS_P2;PMS_P1;PMS_P2;Temp;Humidity;BMP_temperature;BMP_pressure;BME280_temperature;BME280_humidity;BME280_pressure;Samples;Min_cycle;Max_cycle;Signal;HPM_P1;HPM_P2
2023/05/05 00:00:58;;;;;;;4.53;1.25;;;12.20;99.90;;;;;;5075205;28;20040;-64
2023/05/05 00:03:24;;;;;;;2.78;1.58;;;11.50;99.90;;;;;;5075139;28;20590;-63
2023/05/05 00:05:51;;;;;;;5.38;1.30;;;11.60;99.90;;;;;;5074923;28;20112;-63
2023/05/05 00:08:17;;;;;;;4.22;1.27;;;11.50;99.90;;;;;;5073475;28;20048;-65
2023/05/05 00:10:47;;;;;;;2.63;1.85;;;11.50;99.90;;;;;;5075106;28;20052;-63
2023/05/05 00:13:13;;;;;;;2.50;1.73;;;11.50;99.90;;;;;;5074978;28;20040;-63
2023/05/05 00:15:44;;;;;;;4.22;1.80;;;11.50;99.90;;;;;;5074526;28;20047;-63
2023/05/05 00:18:10;;;;;;;1.42;1.25;;;11.50;99.90;;;;;;5074928;28;20040;-63
2023/05/05 00:20:36;;;;;;;4.10;1.95;;;11.50;99.90;;;;;;5074808;28;20033;-63
2023/05/05 00:23:02;;;;;;;3.53;1.67;;;11.50;99.90;;;;;;5074821;28;20102;-63
2023/05/05 00:25:28;;;;;;;4.28;1.65;;;11.50;99.90;;;;;;5074492;28;20046;-63
2023/05/05 00:27:54;;;;;;;4.22;1.67;;;11.50;99.90;;;;;;5074715;28;20040;-63
2023/05/05 00:30:20;;;;;;;2.00;1.48;;;12.50;99.90;;;;;;5074656;28;20049;-63
2023/05/05 00:32:49;;;;;;;2.75;1.67;;;11.50;99.90;;;;;;5074666;28;20047;-63
2023/05/05 00:35:16;;;;;;;3.70;1.80;;;11.50;99.90;;;;;;5074572;28;20477;-63
2023/05/05 00:37:42;;;;;;;2.03;1.30;;;11.50;99.90;;;;;;5074557;28;20051;-63
2023/05/05 00:40:08;;;;;;;5.57;1.63;;;11.50;99.90;;;;;;5074508;28;20477;-63
2023/05/05 00:42:46;;;;;;;3.25;2.03;;;11.50;99.90;;;;;;5074339;28;20072;-63
2023/05/05 00:45:13;;;;;;;3.90;1.45;;;11.50;99.90;;;;;;5074459;28;20449;-63
2023/05/05 00:47:51;;;;;;;2.88;1.75;;;11.40;99.90;;;;;;5074366;28;20036;-63
2023/05/05 00:50:24;;;;;;;3.35;1.73;;;11.40;99.90;;;;;;5073156;28;20155;-63
2023/05/05 00:52:53;;;;;;;5.53;2.13;;;11.50;99.90;;;;;;5073976;28;20048;-63
2023/05/05 00:55:18;;;;;;;3.17;1.73;;;12.20;99.90;;;;;;5073824;28;20094;-64
2023/05/05 00:57:44;;;;;;;4.30;1.75;;;11.40;99.90;;;;;;5072867;28;20079;-63
2023/05/05 01:00:11;;;;;;;2.78;1.38;;;11.40;99.90;;;;;;5074073;28;20048;-63
2023/05/05 01:02:38;;;;;;;2.50;1.77;;;11.40;99.90;;;;;;5073652;28;20033;-63
2023/05/05 01:05:05;;;;;;;2.72;1.85;;;12.00;99.90;;;;;;5073943;28;20051;-64
2023/05/05 01:08:11;;;;;;;3.30;1.38;;;11.40;99.90;;;;;;5073989;28;20029;-63
2023/05/05 01:10:45;;;;;;;5.35;1.88;;;11.40;99.90;;;;;;5073845;28;20067;-63
2023/05/05 01:13:20;;;;;;;2.60;1.35;;;11.40;99.90;;;;;;5073603;28;20028;-63
2023/05/05 01:15:52;;;;;;;2.72;1.90;;;11.30;99.90;;;;;;5072874;28;20116;-63
2023/05/05 01:19:05;;;;;;;3.35;1.83;;;11.30;99.90;;;;;;5073782;28;20119;-63
2023/05/05 01:21:40;;;;;;;6.95;1.85;;;11.30;99.90;;;;;;5053762;28;20123;-64
2023/05/05 01:24:31;;;;;;;4.20;1.83;;;11.30;99.90;;;;;;5073433;28;20400;-63
2023/05/05 01:27:21;;;;;;;3.75;2.08;;;11.30;99.90;;;;;;5073378;28;20032;-63
2023/05/05 01:30:13;;;;;;;2.45;1.70;;;11.30;99.90;;;;;;5073265;28;20047;-63
2023/05/05 01:32:43;;;;;;;3.03;1.77;;;11.30;99.90;;;;;;5073504;28;20120;-63
2023/05/05 01:35:19;;;;;;;5.45;1.42;;;11.30;99.90;;;;;;5071909;28;20040;-63
2023/05/05 01:37:50;;;;;;;2.42;1.60;;;11.60;99.90;;;;;;5073251;28;20044;-63
2023/05/05 01:40:19;;;;;;;;;;;11.00;99.90;;;;;;5073676;28;20108;-63
2023/05/05 01:42:46;;;;;;;3.13;1.80;;;11.70;99.90;;;;;;5073327;28;19920;-63
2023/05/05 01:45:13;;;;;;;4.47;2.10;;;10.80;99.90;;;;;;5072928;28;20069;-63
2023/05/05 01:47:40;;;;;;;3.53;1.67;;;11.30;99.90;;;;;;5073237;28;20036;-63
2023/05/05 01:50:08;;;;;;;3.88;1.77;;;11.20;99.90;;;;;;5073313;28;20036;-63
2023/05/05 01:52:36;;;;;;;4.68;1.70;;;11.20;99.90;;;;;;5072016;28;20070;-63
2023/05/05 01:55:02;;;;;;;2.15;1.40;;;11.20;99.90;;;;;;5072060;28;20036;-64
2023/05/05 01:57:30;;;;;;;3.50;1.98;;;11.20;99.90;;;;;;5073176;28;20044;-64
2023/05/05 01:59:58;;;;;;;3.97;1.75;;;11.20;99.90;;;;;;5072832;28;20047;-64
2023/05/05 02:02:27;;;;;;;4.45;1.77;;;11.20;99.90;;;;;;5073007;28;20040;-64
2023/05/05 02:04:54;;;;;;;4.68;1.73;;;11.20;99.90;;;;;;5071965;28;20491;-64
2023/05/05 02:07:21;;;;;;;3.97;1.52;;;11.20;99.90;;;;;;5071849;28;20040;-64
2023/05/05 02:09:47;;;;;;;3.10;1.60;;;12.00;99.90;;;;;;5071888;28;20400;-64
2023/05/05 02:12:14;;;;;;;2.97;1.58;;;11.20;99.90;;;;;;5073027;28;20036;-64
2023/05/05 02:14:41;;;;;;;3.03;1.67;;;11.20;99.90;;;;;;5073004;28;20443;-64
2023/05/05 02:17:08;;;;;;;2.92;1.75;;;12.30;99.90;;;;;;5072638;28;20109;-64
2023/05/05 02:19:42;;;;;;;2.08;1.35;;;11.20;99.90;;;;;;5072966;28;20075;-64
2023/05/05 02:22:08;;;;;;;4.93;2.17;;;11.20;99.90;;;;;;5071338;28;20047;-64
2023/05/05 02:24:34;;;;;;;6.85;2.03;;;11.20;99.90;;;;;;5088219;28;20544;-64
2023/05/05 02:27:02;;;;;;;3.05;1.98;;;11.20;99.90;;;;;;5071379;28;20117;-67
2023/05/05 02:29:34;;;;;;;3.47;2.00;;;11.20;99.90;;;;;;5075356;28;20087;-64
2023/05/05 02:32:13;;;;;;;4.18;1.70;;;11.20;99.90;;;;;;5076964;28;20068;-64
2023/05/05 02:34:41;;;;;;;4.20;1.85;;;11.20;99.90;;;;;;5075452;28;20047;-64
2023/05/05 02:37:12;;;;;;;4.82;2.10;;;11.20;99.90;;;;;;5076949;28;20575;-64
2023/05/05 02:39:44;;;;;;;3.50;1.75;;;11.10;99.90;;;;;;5076538;28;20463;-64
2023/05/05 02:42:14;;;;;;;5.05;1.83;;;11.10;99.90;;;;;;5076665;28;20040;-63
2023/05/05 02:44:41;;;;;;;4.68;2.05;;;11.10;99.90;;;;;;5076452;28;20450;-64
2023/05/05 02:47:07;;;;;;;3.20;1.45;;;11.10;99.90;;;;;;5076671;28;20365;-64
2023/05/05 02:49:33;;;;;;;2.83;1.70;;;11.10;99.90;;;;;;5076600;28;20072;-64
2023/05/05 02:51:59;;;;;;;3.45;1.80;;;10.90;99.90;;;;;;5076620;28;20075;-64
2023/05/05 02:54:26;;;;;;;4.03;1.83;;;11.10;99.90;;;;;;5076555;28;20400;-65
2023/05/05 02:56:53;;;;;;;3.35;1.70;;;11.10;99.90;;;;;;5076465;28;20032;-64
2023/05/05 02:59:30;;;;;;;3.30;1.63;;;11.90;99.90;;;;;;5075194;28;20048;-64
2023/05/05 03:02:26;;;;;;;2.47;1.70;;;11.10;99.90;;;;;;5076236;28;20073;-64
2023/05/05 03:05:01;;;;;;;4.45;2.05;;;11.10;99.90;;;;;;5076089;28;20039;-67
2023/05/05 03:07:37;;;;;;;2.10;1.30;;;11.70;99.90;;;;;;5074905;28;20123;-64
2023/05/05 03:10:08;;;;;;;3.47;2.15;;;11.10;99.90;;;;;;5076005;28;20098;-65
2023/05/05 03:12:53;;;;;;;3.33;1.50;;;11.10;99.90;;;;;;5076138;28;20079;-63
2023/05/05 03:15:23;;;;;;;4.75;1.70;;;11.10;99.90;;;;;;5075732;28;20036;-64
2023/05/05 03:17:51;;;;;;;3.30;1.67;;;11.10;99.90;;;;;;5074489;28;20055;-64
2023/05/05 03:20:18;;;;;;;2.75;1.98;;;11.00;99.90;;;;;;5075669;28;20181;-63
2023/05/05 03:22:44;;;;;;;6.80;2.30;;;11.00;99.90;;;;;;5075984;28;20508;-63
2023/05/05 03:25:10;;;;;;;2.90;1.90;;;11.00;99.90;;;;;;5075927;28;20033;-63
2023/05/05 03:27:35;;;;;;;3.15;1.65;;;11.00;99.90;;;;;;5075926;28;20383;-63
2023/05/05 03:30:01;;;;;;;4.28;2.20;;;11.00;99.90;;;;;;5075846;28;20037;-64
2023/05/05 03:32:27;;;;;;;4.05;1.80;;;10.90;99.90;;;;;;5075768;28;20040;-64
2023/05/05 03:34:53;;;;;;;4.45;1.75;;;10.90;99.90;;;;;;5074585;28;20029;-64
2023/05/05 03:37:18;;;;;;;4.00;2.13;;;11.80;99.90;;;;;;5075685;28;20036;-64
2023/05/05 03:39:44;;;;;;;3.75;1.75;;;10.80;99.90;;;;;;5074837;28;20480;-64
2023/05/05 03:42:09;;;;;;;3.00;1.90;;;10.80;99.90;;;;;;5075238;28;20120;-64
2023/05/05 03:44:35;;;;;;;3.97;1.75;;;10.80;99.90;;;;;;5075608;28;20028;-64
2023/05/05 03:47:00;;;;;;;3.38;2.05;;;10.80;99.90;;;;;;5075212;28;20039;-64
2023/05/05 03:49:26;;;;;;;5.57;2.65;;;10.80;99.90;;;;;;5075420;28;20036;-65
2023/05/05 03:51:52;;;;;;;6.82;2.08;;;10.80;99.90;;;;;;5075447;28;20047;-64
2023/05/05 03:54:17;;;;;;;3.83;2.70;;;11.40;99.90;;;;;;5073819;28;20128;-64
2023/05/05 03:56:43;;;;;;;3.22;2.00;;;10.80;99.90;;;;;;5075069;28;20506;-64
2023/05/05 03:59:09;;;;;;;3.28;2.05;;;11.00;99.90;;;;;;5073827;28;20120;-64
2023/05/05 04:01:34;;;;;;;5.85;2.20;;;10.80;99.90;;;;;;5073579;28;20115;-63
2023/05/05 04:04:00;;;;;;;3.45;1.90;;;10.80;99.90;;;;;;5075253;28;20040;-63
2023/05/05 04:06:26;;;;;;;5.15;1.70;;;10.80;99.90;;;;;;5075173;28;20037;-63
2023/05/05 04:08:52;;;;;;;6.25;2.33;;;10.80;99.90;;;;;;5073718;28;20044;-63
2023/05/05 04:11:18;;;;;;;3.30;2.00;;;10.70;99.90;;;;;;5075059;28;20115;-63
2023/05/05 04:13:44;;;;;;;3.13;1.98;;;10.80;99.90;;;;;;5075058;28;20106;-64
2023/05/05 04:16:10;;;;;;;4.47;2.28;;;10.90;99.90;;;;;;5074583;28;20441;-63
2023/05/05 04:18:36;;;;;;;3.63;2.63;;;10.70;99.90;;;;;;5074950;28;20128;-63
2023/05/05 04:21:02;;;;;;;6.38;2.28;;;10.60;99.90;;;;;;5074886;28;20049;-63
2023/05/05 04:23:27;;;;;;;3.60;2.13;;;10.80;99.90;;;;;;5074417;28;20400;-63
2023/05/05 04:25:53;;;;;;;3.83;2.42;;;10.70;1.00;;;;;;5074815;28;20032;-63
2023/05/05 04:28:19;;;;;;;4.40;2.63;;;10.80;1.00;;;;;;5074808;28;20037;-63
2023/05/05 04:30:45;;;;;;;5.10;2.55;;;10.80;1.00;;;;;;5073405;28;20044;-63
2023/05/05 04:33:11;;;;;;;3.47;2.20;;;10.60;55.20;;;;;;5074294;28;20040;-64
2023/05/05 04:35:37;;;;;;;5.22;2.22;;;10.50;42.80;;;;;;5074647;28;20047;-63
2023/05/05 04:38:02;;;;;;;5.68;2.15;;;10.70;99.90;;;;;;5074561;28;20087;-63
2023/05/05 04:40:28;;;;;;;3.83;2.17;;;11.10;98.90;;;;;;5073239;28;20377;-63
2023/05/05 04:42:53;;;;;;;3.17;2.15;;;10.60;17.00;;;;;;5074168;28;20373;-63
2023/05/05 04:45:19;;;;;;;4.70;2.38;;;10.60;74.80;;;;;;5074412;28;20063;-63
2023/05/05 04:47:45;;;;;;;3.13;1.80;;;10.70;26.00;;;;;;5074403;28;20032;-63
2023/05/05 04:50:11;;;;;;;4.07;2.17;;;10.50;62.60;;;;;;5073861;28;20369;-64
2023/05/05 04:52:36;;;;;;;4.47;2.42;;;10.70;99.90;;;;;;5073537;28;20040;-63
2023/05/05 04:55:02;;;;;;;6.57;2.60;;;10.50;99.90;;;;;;5074227;28;20444;-64
2023/05/05 04:57:29;;;;;;;3.78;2.33;;;10.70;99.90;;;;;;5074158;28;20052;-63
2023/05/05 04:59:55;;;;;;;8.27;2.30;;;10.70;99.90;;;;;;5074177;28;20519;-63
2023/05/05 05:02:20;;;;;;;4.80;2.08;;;10.70;99.90;;;;;;5073994;28;20040;-63
2023/05/05 05:04:46;;;;;;;3.35;2.00;;;10.70;99.90;;;;;;5074017;28;20076;-63
2023/05/05 05:07:13;;;;;;;3.17;2.30;;;10.80;99.90;;;;;;5073659;28;20381;-63
2023/05/05 05:09:39;;;;;;;3.95;2.47;;;10.80;99.90;;;;;;5072424;28;20040;-63
2023/05/05 05:12:06;;;;;;;6.03;2.45;;;10.80;99.90;;;;;;5072735;28;20391;-63
2023/05/05 05:14:36;;;;;;;6.25;2.70;;;10.80;99.90;;;;;;5073854;28;20435;-63
2023/05/05 05:17:02;;;;;;;4.03;2.27;;;11.70;1.00;;;;;;5073438;28;20098;-64
2023/05/05 05:19:28;;;;;;;6.20;2.22;;;10.50;1.00;;;;;;5073781;28;20084;-64
2023/05/05 05:21:54;;;;;;;4.60;2.70;;;10.70;90.00;;;;;;5073631;28;20033;-68
2023/05/05 05:24:19;;;;;;;2.65;2.00;;;11.80;99.20;;;;;;5073610;28;20116;-64
2023/05/05 05:26:45;;;;;;;4.05;2.42;;;11.10;99.90;;;;;;5073582;28;20047;-63
2023/05/05 05:29:10;;;;;;;9.68;2.65;;;11.30;99.90;;;;;;5073399;28;20040;-64
2023/05/05 05:31:36;;;;;;;5.05;2.25;;;10.70;1.00;;;;;;5073527;28;20094;-64
2023/05/05 05:34:01;;;;;;;6.63;2.47;;;10.70;99.90;;;;;;5073467;28;20055;-64
2023/05/05 05:36:27;;;;;;;3.33;2.28;;;10.70;1.00;;;;;;5073502;28;20072;-65
2023/05/05 05:38:53;;;;;;;6.18;2.72;;;10.50;99.90;;;;;;5073440;28;20094;-64
2023/05/05 05:41:18;;;;;;;4.45;3.00;;;10.60;75.50;;;;;;5073019;28;20043;-64
2023/05/05 05:43:44;;;;;;;3.78;2.70;;;10.30;99.90;;;;;;5073329;28;20071;-64
2023/05/05 05:46:10;;;;;;;6.53;2.88;;;10.70;99.90;;;;;;5073329;28;20029;-63
2023/05/05 05:48:35;;;;;;;5.78;2.65;;;10.50;99.90;;;;;;5072976;28;20396;-64
2023/05/05 05:51:01;;;;;;;5.30;2.83;;;10.70;99.90;;;;;;5073272;28;20166;-65
2023/05/05 05:53:27;;;;;;;2.50;2.20;;;11.10;95.10;;;;;;5072969;28;20028;-65
2023/05/05 05:55:52;;;;;;;5.05;2.67;;;10.80;99.90;;;;;;5073237;28;20527;-65
2023/05/05 05:58:18;;;;;;;5.03;2.40;;;10.80;99.90;;;;;;5072873;28;20393;-64
2023/05/05 06:00:43;;;;;;;6.75;2.85;;;11.40;99.90;;;;;;5073013;28;20044;-65
2023/05/05 06:03:09;;;;;;;5.97;3.05;;;11.00;99.90;;;;;;5072770;28;20048;-65
2023/05/05 06:05:35;;;;;;;5.07;3.05;;;11.00;99.90;;;;;;5072796;28;20097;-65
2023/05/05 06:08:00;;;;;;;6.18;3.25;;;11.10;39.80;;;;;;5073068;28;20038;-66
2023/05/05 06:10:26;;;;;;;9.20;3.35;;;11.00;99.90;;;;;;5072980;28;20098;-64
2023/05/05 06:12:52;;;;;;;4.35;2.65;;;11.10;99.90;;;;;;5073589;28;20085;-66
2023/05/05 06:15:17;;;;;;;7.68;3.20;;;11.20;99.90;;;;;;5072913;28;20036;-65
2023/05/05 06:17:43;;;;;;;3.65;2.45;;;11.20;99.90;;;;;;5072515;28;20044;-65
2023/05/05 06:20:09;;;;;;;4.00;2.72;;;11.20;1.00;;;;;;5072587;28;20040;-65
2023/05/05 06:22:35;;;;;;;3.58;2.50;;;11.20;1.00;;;;;;5070992;28;20224;-64
2023/05/05 06:25:00;;;;;;;4.10;2.45;;;11.10;99.90;;;;;;5070613;28;20130;-64
2023/05/05 06:27:26;;;;;;;5.97;3.38;;;11.40;99.90;;;;;;5072719;28;20404;-65
2023/05/05 06:29:51;;;;;;;5.22;2.95;;;11.40;99.90;;;;;;5072785;28;20045;-65
2023/05/05 06:32:17;;;;;;;3.92;2.20;;;11.50;42.70;;;;;;5071231;28;20400;-65
2023/05/05 06:34:43;;;;;;;5.20;3.20;;;11.70;1.00;;;;;;5071172;28;20044;-64
2023/05/05 06:37:09;;;;;;;4.97;2.88;;;11.90;1.00;;;;;;5072372;28;20122;-65
2023/05/05 06:39:35;;;;;;;4.70;2.83;;;12.30;99.90;;;;;;5072747;28;20472;-64
2023/05/05 06:42:02;;;;;;;6.50;2.88;;;12.40;99.90;;;;;;5071223;28;20036;-64
2023/05/05 06:44:29;;;;;;;3.80;2.95;;;12.50;99.90;;;;;;5072647;28;20040;-65
2023/05/05 06:46:55;;;;;;;4.72;2.95;;;13.20;1.00;;;;;;5072547;28;20033;-64
2023/05/05 06:49:21;;;;;;;4.40;3.03;;;12.70;99.90;;;;;;5072553;28;20032;-68
2023/05/05 06:51:47;;;;;;;4.10;2.72;;;12.70;99.90;;;;;;5072550;28;20051;-64
2023/05/05 06:54:12;;;;;;;7.75;2.92;;;13.70;99.90;;;;;;5072578;28;20127;-64
2023/05/05 06:56:38;;;;;;;5.13;2.80;;;12.70;99.90;;;;;;5072541;28;20120;-64
2023/05/05 06:59:03;;;;;;;4.00;2.40;;;12.70;99.90;;;;;;5071350;28;20070;-64
2023/05/05 07:01:29;;;;;;;4.85;3.08;;;12.70;99.90;;;;;;5070725;28;20044;-64
2023/05/05 07:03:55;;;;;;;8.68;3.33;;;12.70;99.90;;;;;;5072337;28;20065;-64
2023/05/05 07:06:20;;;;;;;4.95;3.05;;;12.60;99.90;;;;;;5072024;28;20040;-64
2023/05/05 07:08:46;;;;;;;7.18;3.38;;;12.80;99.90;;;;;;5072398;28;20497;-66
2023/05/05 07:11:12;;;;;;;7.43;3.30;;;13.50;99.90;;;;;;5072428;28;20114;-64
2023/05/05 07:13:37;;;;;;;5.18;3.17;;;12.80;99.90;;;;;;5072439;28;20040;-64
2023/05/05 07:16:03;;;;;;;5.40;2.67;;;12.70;99.90;;;;;;5073891;28;20048;-64
2023/05/05 07:18:29;;;;;;;7.45;3.42;;;12.70;99.90;;;;;;5075553;28;20466;-64
2023/05/05 07:20:54;;;;;;;8.65;3.30;;;12.70;99.90;;;;;;5075753;28;20072;-64
2023/05/05 07:23:20;;;;;;;4.53;3.13;;;12.60;99.90;;;;;;5075722;28;20491;-64
2023/05/05 07:25:45;;;;;;;4.55;3.20;;;12.60;99.90;;;;;;5075414;28;20040;-64
2023/05/05 07:28:11;;;;;;;5.95;2.97;;;12.80;99.90;;;;;;5075633;28;20044;-64
2023/05/05 07:30:36;;;;;;;6.40;3.72;;;13.00;99.90;;;;;;5075651;28;20376;-64
2023/05/05 07:33:02;;;;;;;4.47;3.17;;;13.10;99.90;;;;;;5075569;28;20032;-65
2023/05/05 07:35:28;;;;;;;9.48;3.47;;;13.20;39.70;;;;;;5075541;28;20040;-64
2023/05/05 07:37:54;;;;;;;8.18;3.35;;;13.30;22.20;;;;;;5074163;28;20051;-64
2023/05/05 07:40:20;;;;;;;5.93;3.20;;;13.50;76.20;;;;;;5075000;28;20040;-64
2023/05/05 07:42:46;;;;;;;6.57;3.85;;;13.70;99.90;;;;;;5075189;28;20388;-64
2023/05/05 07:45:12;;;;;;;8.07;3.90;;;13.80;1.00;;;;;;5075300;28;20041;-64
2023/05/05 07:47:37;;;;;;;5.47;3.28;;;13.90;1.00;;;;;;5075422;28;20037;-63
2023/05/05 07:50:03;;;;;;;4.70;3.10;;;14.10;11.80;;;;;;5075302;28;20063;-63
2023/05/05 07:52:29;;;;;;;6.03;3.22;;;14.20;1.00;;;;;;5073757;28;20043;-63
2023/05/05 07:54:55;;;;;;;5.45;3.15;;;14.40;1.00;;;;;;5075205;28;20032;-64
2023/05/05 07:57:20;;;;;;;4.75;3.38;;;14.60;1.00;;;;;;5075084;28;20068;-63
2023/05/05 07:59:46;;;;;;;4.68;3.38;;;14.80;1.00;;;;;;5073797;28;20051;-63
2023/05/05 08:02:12;;;;;;;5.15;3.35;;;14.80;1.00;;;;;;5075149;28;20145;-64
2023/05/05 08:04:42;;;;;;;6.00;3.63;;;15.60;1.00;;;;;;5075151;28;20032;-65
2023/05/05 08:07:09;;;;;;;4.72;3.65;;;14.70;1.00;;;;;;5075166;28;20036;-64
2023/05/05 08:09:35;;;;;;;6.57;3.65;;;15.60;1.00;;;;;;5075033;28;20520;-65
2023/05/05 08:12:01;;;;;;;5.88;3.40;;;15.00;1.00;;;;;;5073524;28;20064;-64
2023/05/05 08:14:28;;;;;;;6.43;3.95;;;15.00;1.00;;;;;;5074993;28;20033;-66
2023/05/05 08:16:53;;;;;;;6.80;3.83;;;15.30;1.00;;;;;;5074591;28;20102;-65
2023/05/05 08:19:19;;;;;;;7.53;3.60;;;15.50;99.90;;;;;;5073764;28;20476;-65
2023/05/05 08:21:45;;;;;;;5.55;3.88;;;;;;;;;;5074810;28;20032;-64
2023/05/05 08:24:11;;;;;;;5.05;3.53;;;;;;;;;;5075276;28;20120;-64
2023/05/05 08:26:37;;;;;;;8.32;4.38;;;;;;;;;;5074679;28;20033;-65
2023/05/05 08:29:02;;;;;;;10.07;5.22;;;15.80;99.90;;;;;;5074327;28;20445;-64
2023/05/05 08:31:32;;;;;;;4.72;3.65;;;15.80;99.90;;;;;;5074643;28;20044;-63
2023/05/05 08:33:58;;;;;;;7.28;4.05;;;15.70;99.90;;;;;;5074331;28;20036;-64
2023/05/05 08:36:24;;;;;;;6.97;3.58;;;15.90;99.90;;;;;;5074447;28;20041;-63
2023/05/05 08:38:50;;;;;;;10.40;4.68;;;16.00;99.90;;;;;;5074252;28;20400;-64
2023/05/05 08:41:21;;;;;;;5.97;3.97;;;16.50;99.90;;;;;;5074317;28;20037;-64
2023/05/05 08:43:48;;;;;;;6.00;3.72;;;16.20;99.90;;;;;;5074385;28;20051;-64
2023/05/05 08:46:13;;;;;;;5.97;3.55;;;16.40;99.90;;;;;;5074244;28;20140;-64
2023/05/05 08:48:40;;;;;;;12.55;4.45;;;16.40;99.90;;;;;;5073793;28;20033;-64
2023/05/05 08:51:09;;;;;;;6.53;4.45;;;16.60;99.90;;;;;;5073008;28;20080;-64
2023/05/05 08:53:49;;;;;;;7.40;4.38;;;16.60;99.90;;;;;;5074297;28;20041;-64
2023/05/05 08:56:15;;;;;;;6.70;4.30;;;16.50;99.90;;;;;;5074195;28;20400;-64
2023/05/05 08:58:42;;;;;;;7.10;4.20;;;16.40;99.90;;;;;;5074153;28;20036;-64
2023/05/05 09:01:09;;;;;;;8.35;3.92;;;16.40;99.90;;;;;;5073937;28;20089;-65
2023/05/05 09:03:36;;;;;;;6.25;4.22;;;16.60;99.90;;;;;;5074026;28;20111;-64
2023/05/05 09:06:02;;;;;;;8.15;4.03;;;16.80;99.90;;;;;;5073674;28;20146;-64
2023/05/05 09:08:28;;;;;;;6.10;4.05;;;16.90;99.90;;;;;;5073879;28;20075;-65
2023/05/05 09:10:54;;;;;;;5.40;4.05;;;17.10;99.90;;;;;;5073826;28;20488;-67
2023/05/05 09:13:20;;;;;;;8.75;5.15;;;17.30;99.90;;;;;;5073798;28;20044;-66
2023/05/05 09:15:46;;;;;;;5.60;4.10;;;17.40;99.90;;;;;;5073530;28;20044;-66
2023/05/05 09:18:11;;;;;;;6.82;4.80;;;17.60;99.90;;;;;;5073707;28;20139;-66
2023/05/05 09:20:39;;;;;;;9.40;5.53;;;17.60;99.90;;;;;;5073669;28;20044;-66
2023/05/05 09:23:12;;;;;;;8.07;4.18;;;17.60;99.90;;;;;;5073546;28;20048;-66
2023/05/05 09:25:41;;;;;;;6.75;4.32;;;18.60;99.90;;;;;;5073299;28;20045;-66
2023/05/05 09:28:10;;;;;;;9.30;5.22;;;17.70;99.90;;;;;;5073460;28;20044;-66
2023/05/05 09:30:37;;;;;;;7.55;4.40;;;17.70;99.90;;;;;;5073494;28;20093;-66
2023/05/05 09:33:03;;;;;;;5.72;4.22;;;17.90;99.90;;;;;;5073421;28;20400;-66
2023/05/05 09:35:53;;;;;;;7.18;4.13;;;18.10;99.90;;;;;;5073182;28;20161;-66
2023/05/05 09:38:20;;;;;;;6.50;4.50;;;18.20;99.90;;;;;;5072840;28;20396;-66
2023/05/05 09:40:50;;;;;;;7.20;4.85;;;18.40;99.90;;;;;;5073272;28;20141;-67
2023/05/05 09:43:18;;;;;;;6.70;4.50;;;18.80;99.90;;;;;;5071663;28;20033;-67
2023/05/05 09:45:44;;;;;;;6.72;4.47;;;18.60;99.90;;;;;;5073194;28;20037;-66
2023/05/05 09:48:30;;;;;;;7.10;4.78;;;18.70;99.90;;;;;;5073310;28;20124;-66
2023/05/05 09:50:57;;;;;;;8.45;5.07;;;18.90;99.90;;;;;;5071603;28;20041;-65
2023/05/05 09:53:24;;;;;;;8.90;5.18;;;19.10;99.90;;;;;;5073026;28;20085;-66
2023/05/05 09:55:57;;;;;;;7.47;5.03;;;19.20;99.90;;;;;;5072980;28;20036;-64
2023/05/05 09:58:28;;;;;;;13.02;5.38;;;19.50;99.90;;;;;;5072718;28;20044;-66
2023/05/05 10:00:55;;;;;;;7.63;4.88;;;19.70;99.90;;;;;;5072732;28;20078;-66
2023/05/05 10:03:21;;;;;;;7.22;4.72;;;20.00;99.90;;;;;;5072780;28;20055;-66
2023/05/05 10:05:46;;;;;;;6.70;4.45;;;20.50;99.90;;;;;;5073006;28;20040;-66
2023/05/05 10:08:12;;;;;;;7.57;5.15;;;20.10;99.90;;;;;;5072958;28;20480;-67
2023/05/05 10:10:46;;;;;;;9.48;4.93;;;20.00;99.90;;;;;;5072989;28;20503;-66
2023/05/05 10:13:14;;;;;;;9.15;5.65;;;20.00;99.90;;;;;;5072945;28;20048;-66
2023/05/05 10:15:43;;;;;;;9.82;5.45;;;20.10;99.90;;;;;;5071470;28;20097;-66
2023/05/05 10:18:11;;;;;;;9.95;5.07;;;20.10;99.90;;;;;;5071372;28;20047;-67
2023/05/05 10:20:37;;;;;;;9.90;5.38;;;20.20;99.90;;;;;;5072530;28;20062;-63
2023/05/05 10:23:06;;;;;;;9.90;5.30;;;20.10;99.90;;;;;;5072874;28;20032;-63
2023/05/05 10:25:41;;;;;;;8.25;5.15;;;20.30;99.90;;;;;;5072087;28;20041;-65
2023/05/05 10:28:10;;;;;;;9.38;5.45;;;20.20;99.90;;;;;;5071281;28;20079;-66
2023/05/05 10:30:42;;;;;;;8.57;5.60;;;20.10;99.90;;;;;;5072677;28;20396;-62
2023/05/05 10:33:18;;;;;;;10.88;5.72;;;20.30;99.90;;;;;;5072409;28;20075;-62
2023/05/05 10:35:47;;;;;;;7.40;5.30;;;20.30;99.90;;;;;;5072755;28;20037;-62
2023/05/05 10:38:14;;;;;;;10.05;5.03;;;20.40;99.90;;;;;;5071462;28;20453;-63
2023/05/05 10:40:47;;;;;;;8.82;5.63;;;20.00;99.90;;;;;;5072642;28;20032;-63
2023/05/05 10:43:14;;;;;;;9.18;5.32;;;19.90;99.90;;;;;;5071288;28;20052;-63
2023/05/05 10:45:41;;;;;;;9.32;6.15;;;20.10;99.90;;;;;;5072692;28;20082;-63
2023/05/05 10:48:17;;;;;;;9.30;5.22;;;20.10;99.90;;;;;;5072606;28;20443;-63
2023/05/05 10:50:50;;;;;;;9.05;5.38;;;20.20;99.90;;;;;;5075701;28;20090;-64
2023/05/05 10:53:20;;;;;;;9.27;5.38;;;20.20;99.90;;;;;;5076463;28;20098;-65
2023/05/05 10:56:24;;;;;;;10.35;5.70;;;20.20;99.90;;;;;;5076591;28;20039;-65
2023/05/05 10:58:49;;;;;;;8.32;5.63;;;20.10;99.90;;;;;;5076069;28;20043;-66
2023/05/05 11:01:31;;;;;;;11.05;5.97;;;19.90;99.90;;;;;;5076106;28;20040;-65
2023/05/05 11:04:16;;;;;;;6.70;4.50;;;19.80;99.90;;;;;;5076332;28;20043;-65
2023/05/05 11:07:07;;;;;;;8.68;4.90;;;19.70;99.90;;;;;;5076154;28;20094;-64
2023/05/05 11:09:37;;;;;;;12.82;4.90;;;19.70;99.90;;;;;;5075824;28;20132;-63
2023/05/05 11:12:04;;;;;;;9.07;4.95;;;19.70;99.90;;;;;;5076050;28;20042;-65
2023/05/05 11:14:29;;;;;;;9.38;4.63;;;19.80;99.90;;;;;;5076080;28;20480;-63
2023/05/05 11:16:55;;;;;;;7.15;3.92;;;19.60;99.90;;;;;;5075575;28;20063;-63
2023/05/05 11:19:43;;;;;;;8.27;4.32;;;19.90;99.90;;;;;;5075961;28;20451;-63
2023/05/05 11:22:08;;;;;;;11.27;5.03;;;20.00;99.90;;;;;;5075829;28;20040;-62
2023/05/05 11:24:38;;;;;;;8.65;4.28;;;20.10;99.90;;;;;;5075755;28;20369;-63
2023/05/05 11:27:05;;;;;;;8.50;5.33;;;20.20;99.90;;;;;;5075766;28;20093;-62
2023/05/05 11:30:08;;;;;;;8.32;4.93;;;20.10;99.90;;;;;;5075676;28;20279;-63
2023/05/05 11:32:34;;;;;;;8.82;4.55;;;20.10;99.90;;;;;;5075557;28;20074;-62
2023/05/05 11:35:01;;;;;;;7.68;3.97;;;20.50;99.90;;;;;;5075608;28;20040;-62
2023/05/05 11:37:27;;;;;;;4.88;3.00;;;20.40;99.90;;;;;;5075610;28;20076;-62
2023/05/05 11:40:02;;;;;;;6.75;3.60;;;20.30;99.90;;;;;;5075418;28;20051;-63
2023/05/05 11:42:29;;;;;;;6.60;4.05;;;20.30;99.90;;;;;;5075368;28;20484;-62
2023/05/05 11:44:55;;;;;;;9.43;5.05;;;20.30;99.90;;;;;;5075601;28;20036;-62
2023/05/05 11:47:20;;;;;;;5.50;3.58;;;20.30;99.90;;;;;;5074197;28;20043;-62
2023/05/05 11:49:46;;;;;;;6.20;3.00;;;20.20;99.90;;;;;;5075427;28;20119;-64
2023/05/05 11:52:13;;;;;;;9.27;4.50;;;20.10;99.90;;;;;;5075312;28;20048;-66
2023/05/05 11:54:47;;;;;;;10.05;3.75;;;20.00;99.90;;;;;;5074984;28;20521;-62
2023/05/05 11:57:27;;;;;;;6.75;3.92;;;20.20;99.90;;;;;;5075324;28;20396;-62
2023/05/05 11:59:56;;;;;;;6.88;3.97;;;20.30;99.90;;;;;;5073304;28;20041;-63
2023/05/05 12:02:23;;;;;;;8.50;3.42;;;20.20;99.90;;;;;;5074850;28;20087;-63
2023/05/05 12:04:49;;;;;;;6.30;3.92;;;20.30;99.90;;;;;;5074912;28;20078;-63
2023/05/05 12:07:20;;;;;;;7.85;4.03;;;20.20;99.90;;;;;;5073429;28;20484;-66
2023/05/05 12:09:47;;;;;;;9.45;4.03;;;20.30;99.90;;;;;;5074824;28;20044;-66
2023/05/05 12:12:13;;;;;;;6.25;4.25;;;20.30;99.90;;;;;;5075005;28;20040;-66
2023/05/05 12:14:51;;;;;;;7.03;3.63;;;20.30;99.90;;;;;;5073706;28;20075;-66
2023/05/05 12:17:22;;;;;;;7.10;4.15;;;20.40;99.90;;;;;;5074728;28;20061;-67
2023/05/05 12:19:52;;;;;;;5.63;3.63;;;20.40;99.90;;;;;;5074949;28;20395;-66
2023/05/05 12:22:19;;;;;;;;;;;20.50;99.90;;;;;;5074924;28;20396;-66
2023/05/05 12:24:50;;;;;;;4.95;3.50;;;20.60;99.90;;;;;;5075056;28;19923;-66
2023/05/05 12:27:16;;;;;;;5.68;3.58;;;20.60;99.90;;;;;;5074522;28;20036;-66
2023/05/05 12:29:41;;;;;;;5.97;3.53;;;20.60;99.90;;;;;;5074707;28;20040;-66
2023/05/05 12:32:17;;;;;;;9.35;3.67;;;20.50;99.90;;;;;;5074579;28;20094;-65
2023/05/05 12:34:43;;;;;;;4.35;3.00;;;20.80;99.90;;;;;;5074249;28;20055;-66
2023/05/05 12:37:09;;;;;;;7.32;3.78;;;20.50;99.90;;;;;;5074489;28;20040;-66
2023/05/05 12:39:35;;;;;;;5.75;2.67;;;21.10;99.90;;;;;;5074432;28;20049;-66
2023/05/05 12:42:05;;;;;;;5.43;2.85;;;20.60;99.90;;;;;;5074415;28;20457;-65
2023/05/05 12:44:37;;;;;;;4.53;2.30;;;20.50;99.90;;;;;;5072918;28;20059;-65
2023/05/05 12:47:03;;;;;;;4.82;2.60;;;20.40;99.90;;;;;;5074031;28;20259;-66
2023/05/05 12:49:32;;;;;;;5.55;2.53;;;20.30;99.90;;;;;;5074173;28;20055;-64
2023/05/05 12:51:59;;;;;;;5.20;2.80;;;19.60;99.90;;;;;;5073999;28;20450;-65
2023/05/05 12:54:28;;;;;;;4.78;2.53;;;19.90;99.90;;;;;;5073923;28;20036;-65